Time;durP1;ratioP1;P1;durP2;ratioP2;P2;SDS_P1;SDS_P2;PMS_P1;PMS_P2;Temp;Humidity;BMP_temperature;BMP_pressure;BME280_temperature;BME280_humidity;BME280_pressure;Samples;Min_cycle;Max_cycle;Signal;HPM_P1;HPM_P2
2023/08/13 00:02:15;;;;;;;10.75;2.33;;;15.70;99.90;;;;;;4960887;28;20211;-85
2023/08/13 00:04:42;;;;;;;10.98;3.03;;;15.70;99.90;;;;;;4977842;28;20089;-86
2023/08/13 00:07:09;;;;;;;7.20;2.58;;;15.70;99.90;;;;;;4962945;28;20409;-86
2023/08/13 00:09:35;;;;;;;6.13;2.70;;;15.70;99.90;;;;;;4960528;28;20488;-86
2023/08/13 00:12:01;;;;;;;10.07;2.70;;;15.80;99.90;;;;;;4965508;28;20030;-86
2023/08/13 00:14:27;;;;;;;6.22;2.67;;;15.80;99.90;;;;;;4964577;28;20655;-86
2023/08/13 00:16:53;;;;;;;9.00;2.25;;;15.70;99.90;;;;;;4961595;28;20049;-86
2023/08/13 00:19:18;;;;;;;10.63;2.70;;;15.80;99.90;;;;;;4957384;28;20118;-87
2023/08/13 00:21:44;;;;;;;8.38;2.95;;;15.70;99.90;;;;;;4961072;28;20042;-86
2023/08/13 00:24:10;;;;;;;8.13;3.08;;;15.70;99.90;;;;;;4957543;28;20042;-86
2023/08/13 00:26:38;;;;;;;10.52;2.80;;;15.70;99.90;;;;;;4978468;28;20042;-87
2023/08/13 00:29:04;;;;;;;7.95;3.03;;;15.70;99.90;;;;;;4962887;28;20523;-86
2023/08/13 00:31:33;;;;;;;10.77;2.88;;;15.60;99.90;;;;;;4978292;28;20034;-85
2023/08/13 00:33:58;;;;;;;6.43;2.67;;;15.60;99.90;;;;;;4942666;28;20096;-87
2023/08/13 00:36:25;;;;;;;8.13;3.00;;;15.60;99.90;;;;;;4963231;28;20092;-86
2023/08/13 00:38:51;;;;;;;10.00;3.53;;;15.60;99.90;;;;;;4962033;28;20039;-87
2023/08/13 00:41:19;;;;;;;10.80;2.92;;;15.60;99.90;;;;;;4963858;28;20053;-85
2023/08/13 00:43:48;;;;;;;9.07;3.03;;;15.50;99.90;;;;;;4955475;28;20049;-86
2023/08/13 00:46:15;;;;;;;9.95;3.13;;;15.50;99.90;;;;;;4972496;28;20038;-85
2023/08/13 00:48:41;;;;;;;11.23;2.95;;;15.60;99.90;;;;;;4971066;28;20076;-85
2023/08/13 00:51:11;;;;;;;9.57;3.22;;;15.60;99.90;;;;;;4984779;28;20158;-86
2023/08/13 00:53:51;;;;;;;8.77;2.85;;;15.60;99.90;;;;;;4967896;28;20046;-86
2023/08/13 00:56:17;;;;;;;9.55;2.80;;;15.50;99.90;;;;;;4965277;28;20105;-85
2023/08/13 00:58:44;;;;;;;11.50;3.20;;;15.50;99.90;;;;;;4963896;28;20039;-86
2023/08/13 01:01:11;;;;;;;10.60;3.60;;;15.70;99.90;;;;;;4978340;28;20121;-85
2023/08/13 01:03:38;;;;;;;7.82;2.72;;;15.50;99.90;;;;;;4958877;28;20187;-86
2023/08/13 01:06:18;;;;;;;10.48;3.10;;;15.60;99.90;;;;;;4956150;28;20051;-86
2023/08/13 01:09:08;;;;;;;11.02;3.03;;;15.60;99.90;;;;;;4958891;28;20464;-85
2023/08/13 01:12:06;;;;;;;7.72;2.70;;;15.60;99.90;;;;;;4961237;28;20050;-86
2023/08/13 01:14:43;;;;;;;9.30;3.03;;;15.50;99.90;;;;;;4975577;28;20121;-87
2023/08/13 01:17:11;;;;;;;8.57;2.92;;;15.50;99.90;;;;;;4980689;28;20031;-85
2023/08/13 01:19:39;;;;;;;8.52;3.63;;;15.40;99.90;;;;;;4958087;28;20645;-87
2023/08/13 01:22:05;;;;;;;10.00;3.25;;;15.40;99.90;;;;;;4959618;28;20101;-86
2023/08/13 01:24:31;;;;;;;10.18;3.10;;;15.40;99.90;;;;;;4960675;28;20473;-86
2023/08/13 01:27:15;;;;;;;7.15;2.50;;;15.40;99.90;;;;;;4962735;28;20534;-85
2023/08/13 01:29:48;;;;;;;6.85;3.25;;;15.40;99.90;;;;;;4956838;28;20030;-87
2023/08/13 01:32:21;;;;;;;7.28;3.10;;;15.40;99.90;;;;;;4976388;28;20483;-85
2023/08/13 01:34:49;;;;;;;9.40;3.25;;;15.30;99.90;;;;;;4971740;28;20035;-86
2023/08/13 01:37:15;;;;;;;10.20;3.10;;;15.30;99.90;;;;;;4963083;28;20046;-85
2023/08/13 01:39:41;;;;;;;7.45;2.80;;;15.20;99.90;;;;;;4975893;28;20511;-86
2023/08/13 01:42:10;;;;;;;9.02;3.70;;;15.30;99.90;;;;;;4956062;28;20046;-85
2023/08/13 01:44:35;;;;;;;11.45;3.22;;;15.30;99.90;;;;;;4971345;28;20088;-86
2023/08/13 01:47:01;;;;;;;9.85;3.20;;;15.30;99.90;;;;;;4961686;28;20065;-85
2023/08/13 01:49:27;;;;;;;8.32;2.95;;;15.30;99.90;;;;;;4963109;28;20046;-86
2023/08/13 01:51:52;;;;;;;13.20;3.50;;;15.30;99.90;;;;;;4981748;28;20144;-87
2023/08/13 01:54:18;;;;;;;12.15;3.10;;;15.40;99.90;;;;;;4944915;28;20359;-86
2023/08/13 01:56:44;;;;;;;9.68;3.30;;;15.30;99.90;;;;;;4961407;28;20058;-86
2023/08/13 01:59:09;;;;;;;12.52;3.45;;;15.30;99.90;;;;;;4964497;28;20042;-86
2023/08/13 02:01:35;;;;;;;8.85;3.20;;;15.40;99.90;;;;;;4967221;28;20369;-86
2023/08/13 02:04:01;;;;;;;10.10;2.92;;;15.40;99.90;;;;;;4945661;28;20750;-86
2023/08/13 02:06:32;;;;;;;9.50;3.20;;;15.40;99.90;;;;;;4967322;28;20070;-86
2023/08/13 02:08:59;;;;;;;9.98;3.08;;;15.50;99.90;;;;;;4960604;28;20150;-85
2023/08/13 02:11:25;;;;;;;13.00;3.50;;;15.60;99.90;;;;;;4980115;28;20034;-86
2023/08/13 02:13:51;;;;;;;12.07;3.80;;;15.50;99.90;;;;;;4981870;28;20045;-86
2023/08/13 02:16:16;;;;;;;8.95;2.92;;;15.60;99.90;;;;;;4964674;28;20150;-86
2023/08/13 02:18:45;;;;;;;13.73;4.25;;;15.60;99.90;;;;;;4944581;28;20046;-85
2023/08/13 02:21:11;;;;;;;8.75;3.22;;;15.60;99.90;;;;;;4978366;28;20046;-86
2023/08/13 02:23:36;;;;;;;11.88;4.07;;;15.50;99.90;;;;;;4964338;28;20038;-86
2023/08/13 02:26:02;;;;;;;15.70;3.85;;;15.60;99.90;;;;;;4961682;28;20488;-88
2023/08/13 02:28:28;;;;;;;9.00;3.45;;;15.60;99.90;;;;;;4981062;28;20042;-86
2023/08/13 02:30:53;;;;;;;15.57;3.92;;;15.60;99.90;;;;;;4964564;28;20046;-85
2023/08/13 02:33:19;;;;;;;11.70;3.30;;;15.60;99.90;;;;;;4962401;28;20043;-86
2023/08/13 02:35:45;;;;;;;8.75;3.17;;;15.60;99.90;;;;;;4962849;28;20093;-86
2023/08/13 02:38:11;;;;;;;8.82;3.03;;;15.50;99.90;;;;;;4946505;28;20046;-87
2023/08/13 02:40:36;;;;;;;12.70;3.70;;;15.50;99.90;;;;;;4944311;28;20057;-84
2023/08/13 02:43:02;;;;;;;7.30;2.92;;;15.50;99.90;;;;;;4979886;28;20132;-85
2023/08/13 02:45:28;;;;;;;12.98;3.63;;;15.50;99.90;;;;;;4981992;28;20213;-86
2023/08/13 02:47:54;;;;;;;10.75;3.42;;;15.50;99.90;;;;;;4960847;28;20050;-86
2023/08/13 02:50:19;;;;;;;7.68;3.03;;;15.40;99.90;;;;;;4963198;28;20531;-85
2023/08/13 02:52:45;;;;;;;10.48;2.85;;;15.30;99.90;;;;;;4947447;28;20053;-86
2023/08/13 02:55:11;;;;;;;8.75;3.63;;;15.30;99.90;;;;;;4962594;28;20038;-86
2023/08/13 02:57:36;;;;;;;11.85;3.42;;;15.30;99.90;;;;;;4962559;28;20481;-86
2023/08/13 03:00:05;;;;;;;11.02;3.53;;;15.20;99.90;;;;;;4961177;28;20489;-87
2023/08/13 03:02:31;;;;;;;12.90;3.35;;;15.20;99.90;;;;;;4962598;28;20045;-86
2023/08/13 03:04:58;;;;;;;12.38;3.35;;;15.20;99.90;;;;;;4961482;28;20030;-87
2023/08/13 03:07:23;;;;;;;9.68;3.53;;;15.10;99.90;;;;;;4962017;28;20108;-86
2023/08/13 03:09:49;;;;;;;11.32;3.83;;;15.10;99.90;;;;;;4960959;28;20050;-85
2023/08/13 03:12:15;;;;;;;13.82;3.58;;;15.10;99.90;;;;;;4959899;28;20046;-86
2023/08/13 03:14:41;;;;;;;11.63;3.78;;;15.10;99.90;;;;;;4961922;28;20038;-85
2023/08/13 03:17:13;;;;;;;13.23;4.03;;;15.00;99.90;;;;;;4969212;28;20036;-86
2023/08/13 03:19:38;;;;;;;11.60;3.83;;;15.10;99.90;;;;;;4978847;28;20034;-85
2023/08/13 03:22:04;;;;;;;9.68;3.20;;;15.10;99.90;;;;;;4980066;28;20045;-86
2023/08/13 03:24:30;;;;;;;9.75;3.75;;;15.10;99.90;;;;;;4962802;28;20153;-85
2023/08/13 03:26:55;;;;;;;8.50;3.33;;;15.00;99.90;;;;;;4948735;28;20034;-85
2023/08/13 03:29:21;;;;;;;14.25;3.45;;;15.00;99.90;;;;;;4963194;28;20497;-86
2023/08/13 03:31:50;;;;;;;10.50;3.10;;;14.90;99.90;;;;;;4961535;28;20148;-87
2023/08/13 03:34:15;;;;;;;12.00;3.60;;;15.00;99.90;;;;;;4962031;28;20428;-86
2023/08/13 03:36:41;;;;;;;10.35;4.35;;;14.90;99.90;;;;;;4964001;28;20068;-86
2023/08/13 03:39:07;;;;;;;10.88;3.85;;;14.90;99.90;;;;;;4962836;28;20035;-87
2023/08/13 03:41:33;;;;;;;10.20;3.25;;;14.90;99.90;;;;;;4977094;28;20097;-87
2023/08/13 03:43:58;;;;;;;8.63;3.40;;;14.90;99.90;;;;;;4964808;28;20580;-86
2023/08/13 03:46:24;;;;;;;11.90;4.15;;;15.00;99.90;;;;;;4946591;28;20374;-86
2023/08/13 03:48:50;;;;;;;9.82;3.30;;;15.00;99.90;;;;;;4948382;28;20088;-86
2023/08/13 03:51:15;;;;;;;11.82;3.33;;;15.10;99.90;;;;;;4963919;28;20078;-85
2023/08/13 03:53:44;;;;;;;9.05;3.45;;;15.10;99.90;;;;;;4959495;28;20041;-86
2023/08/13 03:56:10;;;;;;;12.05;4.28;;;15.10;99.90;;;;;;4974392;28;20090;-85
2023/08/13 03:58:36;;;;;;;10.30;3.90;;;15.10;99.90;;;;;;4978429;28;20062;-86
2023/08/13 04:01:06;;;;;;;12.55;4.57;;;15.10;99.90;;;;;;4948740;28;20034;-86
2023/08/13 04:03:31;;;;;;;14.70;4.55;;;15.10;99.90;;;;;;4966309;28;20042;-85
2023/08/13 04:05:57;;;;;;;15.93;4.88;;;15.20;99.90;;;;;;4946528;28;20031;-85
2023/08/13 04:08:23;;;;;;;15.10;3.75;;;15.10;99.90;;;;;;4960202;28;20050;-87
2023/08/13 04:10:50;;;;;;;11.40;4.05;;;15.20;99.90;;;;;;4958469;28;20591;-86
2023/08/13 04:13:15;;;;;;;14.85;3.58;;;15.30;99.90;;;;;;4947216;28;20133;-87
2023/08/13 04:15:41;;;;;;;8.68;3.95;;;15.30;99.90;;;;;;4943021;28;20109;-87
2023/08/13 04:18:07;;;;;;;12.10;3.45;;;15.40;99.90;;;;;;4961060;28;20070;-86
2023/08/13 04:20:35;;;;;;;11.25;3.67;;;15.40;99.90;;;;;;4963548;28;20034;-87
2023/08/13 04:23:04;;;;;;;13.15;3.85;;;15.50;99.90;;;;;;4959573;28;20034;-87
2023/08/13 04:25:31;;;;;;;10.50;3.50;;;15.60;99.90;;;;;;4979862;28;20040;-86
2023/08/13 04:27:57;;;;;;;8.90;3.67;;;15.50;99.90;;;;;;4946667;28;20034;-86
2023/08/13 04:30:22;;;;;;;11.15;3.85;;;15.60;99.90;;;;;;4975864;28;20048;-87
2023/08/13 04:32:55;;;;;;;13.40;4.13;;;15.60;99.90;;;;;;4962812;28;20074;-86
2023/08/13 04:35:22;;;;;;;10.75;3.70;;;15.70;99.90;;;;;;4960424;28;20049;-87
2023/08/13 04:37:49;;;;;;;12.43;3.60;;;15.70;99.90;;;;;;4939813;28;20047;-86
2023/08/13 04:40:15;;;;;;;12.98;3.40;;;15.70;99.90;;;;;;4943826;28;20034;-87
2023/08/13 04:42:42;;;;;;;14.93;4.18;;;15.80;99.90;;;;;;4962257;28;20042;-86
2023/08/13 04:45:12;;;;;;;12.25;3.15;;;15.80;99.90;;;;;;4964399;28;20026;-86
2023/08/13 04:47:38;;;;;;;12.73;3.50;;;15.90;99.90;;;;;;4964303;28;20050;-87
2023/08/13 04:50:06;;;;;;;7.35;3.38;;;15.90;99.90;;;;;;4959654;28;20238;-86
2023/08/13 04:52:32;;;;;;;8.15;3.75;;;15.90;99.90;;;;;;4943537;28;20050;-87
2023/08/13 04:54:58;;;;;;;16.42;3.90;;;15.90;99.90;;;;;;4960456;28;20637;-87
2023/08/13 04:57:23;;;;;;;9.80;3.30;;;16.00;99.90;;;;;;4965077;28;20058;-86
2023/08/13 04:59:49;;;;;;;14.63;3.78;;;16.00;99.90;;;;;;4976218;28;20037;-86
2023/08/13 05:02:15;;;;;;;10.40;2.83;;;16.10;99.90;;;;;;4949026;28;20089;-87
2023/08/13 05:04:40;;;;;;;10.55;3.42;;;16.10;99.90;;;;;;4959427;28;20046;-88
2023/08/13 05:07:06;;;;;;;9.68;3.28;;;16.10;99.90;;;;;;4960364;28;20101;-86
2023/08/13 05:09:34;;;;;;;10.95;3.88;;;16.10;99.90;;;;;;4959791;28;20277;-87
2023/08/13 05:11:59;;;;;;;14.88;3.85;;;16.10;99.90;;;;;;4978379;28;20046;-87
2023/08/13 05:14:25;;;;;;;14.35;3.60;;;16.10;99.90;;;;;;4978731;28;20034;-88
2023/08/13 05:16:51;;;;;;;9.95;4.22;;;16.20;99.90;;;;;;4945061;28;20035;-87
2023/08/13 05:19:20;;;;;;;10.38;3.75;;;16.30;99.90;;;;;;4978929;28;20065;-87
2023/08/13 05:21:45;;;;;;;12.10;3.75;;;16.30;99.90;;;;;;4959201;28;20042;-86
2023/08/13 05:24:11;;;;;;;11.50;3.53;;;16.40;99.90;;;;;;4956335;28;20041;-86
2023/08/13 05:26:37;;;;;;;11.93;3.72;;;16.50;99.90;;;;;;4964591;28;20408;-87
2023/08/13 05:29:03;;;;;;;7.07;3.03;;;16.60;99.90;;;;;;4961080;28;20074;-86
2023/08/13 05:31:30;;;;;;;9.68;3.22;;;16.70;99.90;;;;;;4958992;28;20208;-87
2023/08/13 05:33:57;;;;;;;10.20;3.88;;;16.80;99.90;;;;;;4959907;28;20121;-87
2023/08/13 05:36:26;;;;;;;9.32;3.80;;;16.80;99.90;;;;;;4957068;28;20508;-88
2023/08/13 05:38:52;;;;;;;10.00;3.78;;;16.80;99.90;;;;;;4958649;28;20046;-87
2023/08/13 05:41:18;;;;;;;10.65;4.03;;;16.80;99.90;;;;;;4963124;28;20056;-88
2023/08/13 05:43:44;;;;;;;9.50;3.58;;;16.90;99.90;;;;;;4979572;28;20490;-87
2023/08/13 05:46:09;;;;;;;8.82;3.35;;;16.90;99.90;;;;;;4958812;28;20149;-86
2023/08/13 05:48:35;;;;;;;13.45;3.92;;;17.00;99.90;;;;;;4956486;28;20314;-87
2023/08/13 05:51:04;;;;;;;8.60;3.20;;;16.90;99.90;;;;;;4976696;28;20838;-86
2023/08/13 05:53:29;;;;;;;7.60;3.47;;;16.90;99.90;;;;;;4959440;28;20441;-86
2023/08/13 05:55:58;;;;;;;12.52;3.67;;;17.00;99.90;;;;;;4960818;28;20038;-87
2023/08/13 05:58:24;;;;;;;10.15;3.78;;;16.90;99.90;;;;;;4963298;28;20042;-86
2023/08/13 06:00:49;;;;;;;9.35;3.55;;;16.90;99.90;;;;;;4955901;28;20363;-86
2023/08/13 06:03:15;;;;;;;10.57;3.72;;;16.90;99.90;;;;;;4945762;28;20081;-86
2023/08/13 06:05:41;;;;;;;12.25;3.45;;;16.90;99.90;;;;;;4975569;28;20030;-87
2023/08/13 06:08:06;;;;;;;11.95;3.80;;;16.90;99.90;;;;;;4955477;28;20089;-86
2023/08/13 06:10:32;;;;;;;8.07;3.55;;;16.90;99.90;;;;;;4960687;28;20793;-87
2023/08/13 06:12:58;;;;;;;11.18;3.75;;;16.90;99.90;;;;;;4958590;28;20135;-87
2023/08/13 06:15:24;;;;;;;7.10;3.33;;;16.90;99.90;;;;;;4961419;28;20122;-86
2023/08/13 06:17:49;;;;;;;10.25;3.45;;;17.00;99.90;;;;;;4967134;28;21271;-86
2023/08/13 06:20:17;;;;;;;9.25;3.20;;;17.30;99.90;;;;;;4945054;28;20093;-86
2023/08/13 06:22:43;;;;;;;12.23;3.40;;;17.40;99.90;;;;;;4962008;28;20046;-87
2023/08/13 06:25:12;;;;;;;11.57;3.67;;;17.50;99.90;;;;;;4960835;28;20039;-87
2023/08/13 06:27:37;;;;;;;7.22;3.53;;;17.50;99.90;;;;;;4976708;28;20798;-86
2023/08/13 06:30:03;;;;;;;11.15;3.88;;;17.60;99.90;;;;;;4943347;28;20268;-87
2023/08/13 06:32:29;;;;;;;7.90;4.13;;;17.70;99.90;;;;;;4977618;28;20516;-86
2023/08/13 06:34:55;;;;;;;14.20;4.15;;;17.70;99.90;;;;;;4961946;28;20042;-89
2023/08/13 06:37:20;;;;;;;8.43;3.20;;;17.60;99.90;;;;;;4961807;28;20250;-89
2023/08/13 06:39:46;;;;;;;8.45;4.00;;;17.80;99.90;;;;;;4945519;28;20124;-87
2023/08/13 06:42:12;;;;;;;11.57;3.85;;;17.90;99.90;;;;;;4962301;28;20038;-87
2023/08/13 06:44:37;;;;;;;8.75;3.17;;;17.90;99.90;;;;;;4945826;28;20034;-86
2023/08/13 06:47:03;;;;;;;9.45;3.88;;;18.10;99.90;;;;;;4961781;28;20370;-87
2023/08/13 06:49:28;;;;;;;9.07;3.55;;;18.10;99.90;;;;;;4979386;28;20168;-87
2023/08/13 06:51:54;;;;;;;6.40;3.35;;;18.20;99.90;;;;;;4980534;28;20409;-86
2023/08/13 06:54:20;;;;;;;9.85;3.55;;;18.10;99.90;;;;;;4963869;28;20034;-86
2023/08/13 06:56:46;;;;;;;6.95;2.95;;;17.90;99.90;;;;;;4963318;28;20439;-87
2023/08/13 06:59:11;;;;;;;7.78;3.55;;;17.70;99.90;;;;;;4980772;28;20073;-87
2023/08/13 07:01:37;;;;;;;9.73;3.05;;;17.80;99.90;;;;;;4964449;28;20718;-88
2023/08/13 07:04:03;;;;;;;12.02;3.67;;;17.80;99.90;;;;;;4964753;28;20037;-87
2023/08/13 07:06:29;;;;;;;9.70;3.47;;;17.80;99.90;;;;;;4978490;28;20405;-87
2023/08/13 07:08:55;;;;;;;9.73;3.80;;;17.90;99.90;;;;;;4955235;28;20141;-89
2023/08/13 07:11:21;;;;;;;12.88;3.95;;;18.00;99.90;;;;;;4961833;28;20050;-87
2023/08/13 07:13:51;;;;;;;10.68;3.90;;;18.10;99.90;;;;;;4965322;28;20062;-86
2023/08/13 07:16:17;;;;;;;13.52;3.65;;;18.10;99.90;;;;;;4965570;28;20622;-87
2023/08/13 07:18:43;;;;;;;9.27;3.65;;;18.40;99.90;;;;;;4965920;28;20539;-86
2023/08/13 07:21:11;;;;;;;11.38;3.90;;;18.50;99.90;;;;;;4978945;28;20438;-87
2023/08/13 07:23:36;;;;;;;10.98;3.80;;;18.40;99.90;;;;;;4962373;28;20349;-87
2023/08/13 07:26:03;;;;;;;11.73;3.67;;;18.40;99.90;;;;;;4980901;28;20348;-86
2023/08/13 07:28:29;;;;;;;11.65;3.95;;;18.50;99.90;;;;;;4978834;28;20129;-86
2023/08/13 07:30:55;;;;;;;10.48;3.60;;;18.50;99.90;;;;;;4949851;28;20576;-87
2023/08/13 07:33:21;;;;;;;9.70;3.42;;;18.70;99.90;;;;;;4963843;28;20460;-86
2023/08/13 07:35:47;;;;;;;9.35;3.50;;;18.70;99.90;;;;;;4959662;28;20125;-86
2023/08/13 07:38:16;;;;;;;7.72;3.78;;;18.80;99.90;;;;;;4963215;28;20034;-87
2023/08/13 07:40:42;;;;;;;6.95;3.15;;;19.00;99.90;;;;;;4962804;28;20041;-87
2023/08/13 07:43:10;;;;;;;9.73;3.10;;;19.10;99.90;;;;;;4962356;28;20436;-87
2023/08/13 07:45:36;;;;;;;11.05;3.35;;;19.00;99.90;;;;;;4972496;28;20038;-88
2023/08/13 07:48:01;;;;;;;10.75;3.20;;;19.10;99.90;;;;;;4965181;28;20053;-88
2023/08/13 07:50:29;;;;;;;11.38;3.50;;;19.40;99.90;;;;;;4945441;28;20101;-89
2023/08/13 07:52:55;;;;;;;10.25;3.40;;;19.50;99.90;;;;;;4962558;28;20045;-87
2023/08/13 07:55:21;;;;;;;8.52;3.42;;;19.50;99.90;;;;;;4964727;28;20044;-87
2023/08/13 07:57:46;;;;;;;8.07;3.42;;;19.50;99.90;;;;;;4962975;28;20125;-86
2023/08/13 08:00:12;;;;;;;10.48;3.53;;;19.50;99.90;;;;;;4976929;28;20465;-88
2023/08/13 08:02:39;;;;;;;11.98;3.50;;;19.70;99.90;;;;;;4964720;28;20042;-86
2023/08/13 08:05:06;;;;;;;8.30;3.33;;;19.70;99.90;;;;;;4960559;28;20512;-88
2023/08/13 08:07:35;;;;;;;10.45;3.22;;;20.00;99.90;;;;;;4961224;28;20060;-87
2023/08/13 08:10:01;;;;;;;7.28;2.97;;;20.20;99.90;;;;;;4962011;28;20150;-88
2023/08/13 08:12:27;;;;;;;6.93;2.80;;;20.30;99.90;;;;;;4956328;28;20047;-87
2023/08/13 08:14:53;;;;;;;11.98;3.03;;;20.40;99.90;;;;;;4962064;28;20050;-87
2023/08/13 08:17:19;;;;;;;7.22;3.00;;;20.30;99.90;;;;;;4947850;28;20469;-87
2023/08/13 08:19:45;;;;;;;8.65;2.75;;;20.40;99.90;;;;;;4975603;28;20097;-88
2023/08/13 08:22:11;;;;;;;7.20;2.55;;;20.30;99.90;;;;;;4960207;28;20596;-86
2023/08/13 08:24:39;;;;;;;7.65;2.63;;;20.50;99.90;;;;;;4973875;28;20031;-86
2023/08/13 08:27:07;;;;;;;7.85;2.45;;;20.80;99.90;;;;;;4962644;28;20054;-87
2023/08/13 08:29:33;;;;;;;8.82;2.28;;;21.20;99.90;;;;;;4964390;28;20480;-88
2023/08/13 08:31:59;;;;;;;5.53;2.30;;;21.30;99.90;;;;;;4948043;28;20232;-87
2023/08/13 08:34:25;;;;;;;6.07;2.55;;;21.30;99.90;;;;;;4958361;28;20397;-86
2023/08/13 08:36:52;;;;;;;10.40;2.83;;;21.60;99.90;;;;;;4960426;28;20397;-88
2023/08/13 08:39:18;;;;;;;6.78;2.22;;;21.80;99.90;;;;;;4959888;28;20081;-87
2023/08/13 08:41:50;;;;;;;9.68;3.55;;;21.80;99.90;;;;;;4978023;28;20560;-86
2023/08/13 08:44:21;;;;;;;6.93;1.80;;;21.80;99.90;;;;;;4978658;28;20041;-88
2023/08/13 08:46:51;;;;;;;5.68;2.33;;;21.70;99.90;;;;;;4978066;28;20444;-88
2023/08/13 08:49:18;;;;;;;6.47;2.75;;;21.90;99.90;;;;;;4958623;28;20053;-87
2023/08/13 08:51:45;;;;;;;6.03;2.20;;;21.70;99.90;;;;;;4963685;28;20049;-87
2023/08/13 08:54:11;;;;;;;8.82;2.22;;;21.70;99.90;;;;;;4959968;28;20064;-90
2023/08/13 08:56:40;;;;;;;10.07;2.45;;;21.50;99.90;;;;;;4948627;28;20495;-88
2023/08/13 08:59:06;;;;;;;8.77;2.35;;;20.90;99.90;;;;;;4978189;28;20070;-88
2023/08/13 09:01:32;;;;;;;6.20;1.95;;;20.90;99.90;;;;;;4948157;28;20418;-87
2023/08/13 09:03:58;;;;;;;6.38;2.10;;;21.00;99.90;;;;;;4976109;28;20111;-86
2023/08/13 09:06:44;;;;;;;5.88;1.98;;;21.20;99.90;;;;;;4960270;28;20494;-87
2023/08/13 09:09:12;;;;;;;7.32;2.25;;;21.40;99.90;;;;;;4959205;28;20471;-87
2023/08/13 09:11:39;;;;;;;3.92;1.55;;;21.60;99.90;;;;;;4973837;28;20324;-87
2023/08/13 09:14:04;;;;;;;4.88;1.80;;;21.60;99.90;;;;;;4945960;28;20144;-86
2023/08/13 09:16:30;;;;;;;6.60;2.20;;;21.60;99.90;;;;;;4945266;28;20543;-87
2023/08/13 09:18:56;;;;;;;4.50;2.15;;;21.70;99.90;;;;;;4972513;28;20042;-86
2023/08/13 09:21:29;;;;;;;6.75;2.30;;;21.90;99.90;;;;;;4961937;28;20070;-88
2023/08/13 09:23:56;;;;;;;7.32;2.58;;;21.80;99.90;;;;;;4942652;28;20168;-88
2023/08/13 09:26:24;;;;;;;5.45;2.15;;;21.90;99.90;;;;;;4964274;28;20034;-87
2023/08/13 09:28:50;;;;;;;5.43;2.13;;;21.80;99.90;;;;;;4963796;28;20553;-87
2023/08/13 09:31:23;;;;;;;6.93;2.22;;;21.90;99.90;;;;;;4948057;28;20125;-89
2023/08/13 09:33:48;;;;;;;6.25;2.03;;;22.00;99.90;;;;;;4978697;28;20034;-87
2023/08/13 09:36:14;;;;;;;6.45;2.20;;;22.10;99.90;;;;;;4975994;28;20061;-87
2023/08/13 09:38:39;;;;;;;7.57;1.90;;;22.10;99.90;;;;;;4944158;28;20193;-86
2023/08/13 09:41:06;;;;;;;5.00;2.30;;;22.00;99.90;;;;;;4962131;28;20065;-87
2023/08/13 09:43:36;;;;;;;5.90;2.08;;;22.00;99.90;;;;;;4961056;28;20408;-86
2023/08/13 09:46:02;;;;;;;5.85;2.38;;;21.60;99.90;;;;;;4964750;28;20066;-86
2023/08/13 09:48:29;;;;;;;2.60;1.58;;;22.00;99.90;;;;;;4957181;28;20030;-86
2023/08/13 09:50:57;;;;;;;6.00;2.25;;;22.10;99.90;;;;;;4958589;28;20051;-86
2023/08/13 09:53:25;;;;;;;9.63;2.42;;;22.40;99.90;;;;;;4958237;28;20046;-86
2023/08/13 09:55:57;;;;;;;4.88;1.70;;;22.80;99.90;;;;;;4961910;28;20042;-87
2023/08/13 09:58:24;;;;;;;6.22;2.08;;;23.00;99.90;;;;;;4963473;28;20042;-88
2023/08/13 10:00:49;;;;;;;4.50;2.28;;;23.20;99.90;;;;;;4948197;28;20113;-88
2023/08/13 10:03:18;;;;;;;3.58;1.70;;;22.90;99.90;;;;;;4978190;28;20123;-86
2023/08/13 10:05:44;;;;;;;6.20;1.80;;;22.60;99.90;;;;;;4956878;28;20206;-86
2023/08/13 10:08:10;;;;;;;3.22;1.67;;;22.60;99.90;;;;;;4945331;28;20196;-88
2023/08/13 10:10:37;;;;;;;8.57;1.92;;;22.80;99.90;;;;;;4967007;28;20041;-87
2023/08/13 10:13:04;;;;;;;4.10;1.75;;;22.80;99.90;;;;;;4964327;28;20076;-88
2023/08/13 10:15:31;;;;;;;5.95;1.58;;;23.00;99.90;;;;;;4962323;28;20042;-88
2023/08/13 10:18:01;;;;;;;5.97;1.67;;;23.10;99.90;;;;;;4965183;28;20039;-87
2023/08/13 10:20:27;;;;;;;3.58;1.67;;;23.30;99.90;;;;;;4961252;28;20034;-89
2023/08/13 10:22:54;;;;;;;3.60;1.60;;;23.50;99.90;;;;;;4979631;28;20145;-87
2023/08/13 10:25:32;;;;;;;4.18;1.50;;;23.20;99.90;;;;;;4982275;28;20046;-88
2023/08/13 10:27:59;;;;;;;4.93;1.63;;;23.00;99.90;;;;;;4981860;28;20038;-88
2023/08/13 10:30:24;;;;;;;6.60;1.88;;;22.90;99.90;;;;;;4960015;28;20040;-89
2023/08/13 10:33:03;;;;;;;5.50;1.77;;;23.10;99.90;;;;;;4964302;28;20128;-87
2023/08/13 10:35:41;;;;;;;4.10;2.00;;;23.70;99.90;;;;;;4963725;28;20053;-87
2023/08/13 10:38:10;;;;;;;5.53;1.70;;;24.00;99.90;;;;;;4964148;28;20133;-88
2023/08/13 10:40:55;;;;;;;3.05;1.48;;;23.60;99.90;;;;;;4965932;28;20095;-88
2023/08/13 10:43:21;;;;;;;9.00;1.63;;;23.90;99.90;;;;;;4981582;28;20493;-86
2023/08/13 10:45:48;;;;;;;4.18;1.58;;;23.80;99.90;;;;;;4964493;28;20045;-87
2023/08/13 10:48:28;;;;;;;4.43;1.80;;;24.00;99.90;;;;;;4963736;28;20691;-87
2023/08/13 10:50:58;;;;;;;5.35;1.77;;;24.20;99.90;;;;;;4944520;28;20250;-89
2023/08/13 10:53:26;;;;;;;5.18;1.55;;;24.40;99.90;;;;;;4949193;28;20039;-86
2023/08/13 10:55:59;;;;;;;4.43;1.52;;;24.40;99.90;;;;;;4966008;28;20129;-86
2023/08/13 10:58:30;;;;;;;4.28;1.60;;;24.30;99.90;;;;;;4949588;28;20352;-89
2023/08/13 11:01:09;;;;;;;3.13;1.45;;;23.90;99.90;;;;;;4980619;28;20027;-88
2023/08/13 11:03:53;;;;;;;3.70;1.63;;;23.60;99.90;;;;;;4964682;28;20042;-87
2023/08/13 11:06:20;;;;;;;4.47;1.52;;;23.80;99.90;;;;;;4947291;28;20108;-88
2023/08/13 11:08:46;;;;;;;4.20;1.63;;;23.60;99.90;;;;;;4976679;28;20417;-87
2023/08/13 11:11:13;;;;;;;4.60;1.50;;;23.50;99.90;;;;;;4965373;28;20042;-87
2023/08/13 11:13:39;;;;;;;3.60;1.60;;;23.40;99.90;;;;;;4947097;28;20077;-88
2023/08/13 11:16:08;;;;;;;3.17;1.45;;;23.60;99.90;;;;;;4977414;28;20077;-87
2023/08/13 11:18:33;;;;;;;6.25;1.27;;;23.70;99.90;;;;;;4962351;28;20057;-87
2023/08/13 11:21:00;;;;;;;2.65;1.40;;;23.60;99.90;;;;;;4950389;28;20708;-88
2023/08/13 11:23:26;;;;;;;5.90;1.88;;;23.30;99.90;;;;;;4961969;28;20096;-89
2023/08/13 11:25:52;;;;;;;3.00;1.13;;;23.90;99.90;;;;;;4979928;28;20097;-87
2023/08/13 11:28:26;;;;;;;3.90;1.55;;;23.60;99.90;;;;;;4967591;28;20141;-88
2023/08/13 11:30:56;;;;;;;1.35;1.05;;;23.50;99.90;;;;;;4983796;28;20085;-87
2023/08/13 11:33:22;;;;;;;3.83;1.63;;;23.20;99.90;;;;;;4952597;28;20489;-88
2023/08/13 11:35:49;;;;;;;3.25;1.58;;;23.00;99.90;;;;;;4979431;28;20134;-87
2023/08/13 11:38:15;;;;;;;4.55;1.70;;;23.10;99.90;;;;;;4962184;28;20046;-86
2023/08/13 11:40:41;;;;;;;4.55;1.73;;;23.60;99.90;;;;;;4981156;28;20081;-88
2023/08/13 11:43:10;;;;;;;5.28;1.40;;;24.20;99.90;;;;;;4962546;28;20125;-88
2023/08/13 11:45:36;;;;;;;4.80;1.98;;;24.30;99.90;;;;;;4980510;28;20033;-86
2023/08/13 11:48:19;;;;;;;2.70;1.20;;;24.30;99.90;;;;;;4961782;28;20046;-88
2023/08/13 11:50:48;;;;;;;5.25;1.70;;;23.70;99.90;;;;;;4964682;28;20085;-87
2023/08/13 11:53:15;;;;;;;3.20;1.88;;;23.80;99.90;;;;;;4980089;28;20154;-87
2023/08/13 11:55:46;;;;;;;4.55;1.45;;;23.70;99.90;;;;;;4963502;28;20508;-87
2023/08/13 11:58:16;;;;;;;4.43;1.10;;;23.40;99.90;;;;;;4963070;28;20177;-87
2023/08/13 12:00:42;;;;;;;2.88;0.90;;;23.30;99.90;;;;;;4950198;28;20074;-87
2023/08/13 12:03:07;;;;;;;5.40;1.20;;;23.30;99.90;;;;;;4945377;28;20066;-87
2023/08/13 12:05:35;;;;;;;3.08;1.00;;;23.30;99.90;;;;;;4947913;28;20241;-88
2023/08/13 12:08:09;;;;;;;1.92;0.82;;;23.50;99.90;;;;;;4947387;28;20575;-87
2023/08/13 12:10:36;;;;;;;3.47;1.00;;;23.70;99.90;;;;;;4965135;28;20043;-87
2023/08/13 12:13:02;;;;;;;2.58;1.10;;;23.90;99.90;;;;;;4961288;28;20042;-87
2023/08/13 12:15:29;;;;;;;1.73;0.90;;;24.10;99.90;;;;;;4964440;28;20049;-88
2023/08/13 12:17:56;;;;;;;3.25;1.13;;;24.40;99.90;;;;;;4962054;28;20692;-87
2023/08/13 12:20:23;;;;;;;2.55;1.08;;;24.40;99.90;;;;;;4962318;28;20039;-88
2023/08/13 12:22:49;;;;;;;2.67;1.10;;;24.40;99.90;;;;;;4980875;28;20049;-87
2023/08/13 12:25:16;;;;;;;3.42;1.05;;;24.50;99.90;;;;;;4961533;28;20219;-86
2023/08/13 12:27:43;;;;;;;2.22;1.10;;;24.80;99.90;;;;;;4963736;28;20185;-87
2023/08/13 12:30:09;;;;;;;3.72;1.33;;;24.80;99.90;;;;;;4977677;28;20448;-88
2023/08/13 12:32:35;;;;;;;2.53;1.33;;;24.90;99.90;;;;;;4960852;28;20512;-88
2023/08/13 12:35:04;;;;;;;4.47;1.52;;;24.70;99.90;;;;;;4950032;28;20048;-88
2023/08/13 12:37:31;;;;;;;2.90;1.08;;;24.80;99.90;;;;;;4964157;28;20117;-88
2023/08/13 12:39:57;;;;;;;3.35;1.40;;;24.60;99.90;;;;;;4961096;28;20100;-89
2023/08/13 12:42:23;;;;;;;2.53;0.82;;;24.70;99.90;;;;;;4960779;28;20046;-88
2023/08/13 12:44:48;;;;;;;4.70;1.40;;;24.70;99.90;;;;;;4946734;28;20148;-88